createdAt,value
2022-09-27T00:00:12.295Z,78.09
2022-09-27T00:01:12.334Z,78.00
2022-09-27T00:02:12.332Z,78.03
2022-09-27T00:03:12.339Z,77.87
2022-09-27T00:04:12.261Z,77.73
2022-09-27T00:05:12.263Z,77.55
2022-09-27T00:06:12.253Z,77.57
2022-09-27T00:07:12.252Z,77.44
2022-09-27T00:08:12.252Z,77.47
2022-09-27T00:09:12.253Z,77.40
2022-09-27T00:10:12.231Z,77.47
2022-09-27T00:11:12.211Z,77.49
2022-09-27T00:12:12.211Z,77.73
2022-09-27T00:13:12.210Z,77.92
2022-09-27T00:14:12.201Z,78.10
2022-09-27T00:15:12.200Z,77.89
2022-09-27T00:16:12.284Z,77.75
2022-09-27T00:17:12.192Z,77.57
2022-09-27T00:18:12.397Z,77.60
2022-09-27T00:19:12.169Z,77.55
2022-09-27T00:20:12.158Z,77.50
2022-09-27T00:21:12.157Z,77.92
2022-09-27T00:22:12.147Z,77.76
2022-09-27T00:23:12.166Z,77.59
2022-09-27T00:24:12.148Z,77.47
2022-09-27T00:25:12.148Z,77.51
2022-09-27T00:26:12.138Z,77.62
2022-09-27T00:27:12.136Z,77.60
2022-09-27T00:28:12.120Z,77.54
2022-09-27T00:29:12.138Z,77.47
2022-09-27T00:30:12.131Z,77.42
2022-09-27T00:31:12.142Z,77.46
2022-09-27T00:32:12.100Z,77.54
2022-09-27T00:33:12.097Z,77.56
2022-09-27T00:34:12.086Z,77.66
2022-09-27T00:35:12.068Z,77.64
2022-09-27T00:36:12.081Z,77.69
2022-09-27T00:37:12.067Z,77.81
2022-09-27T00:38:12.057Z,77.89
2022-09-27T00:39:12.064Z,78.01
2022-09-27T00:40:15.147Z,78.07
2022-09-27T00:41:13.059Z,78.01
2022-09-27T00:42:12.063Z,77.97
2022-09-27T00:43:12.062Z,77.95
2022-09-27T00:44:12.063Z,78.03
2022-09-27T00:45:12.060Z,77.89
2022-09-27T00:46:12.109Z,77.84
2022-09-27T00:47:12.044Z,77.85
2022-09-27T00:48:12.032Z,77.74
2022-09-27T00:49:12.029Z,77.60
2022-09-27T00:50:12.022Z,77.56
2022-09-27T00:51:12.012Z,77.59
2022-09-27T00:52:12.021Z,77.66
2022-09-27T00:53:12.020Z,77.84
2022-09-27T00:54:12.030Z,77.71
2022-09-27T00:55:12.031Z,77.76
2022-09-27T00:56:12.020Z,77.58
2022-09-27T00:57:12.031Z,77.60
2022-09-27T00:58:12.011Z,77.57
2022-09-27T00:59:12.019Z,77.48
2022-09-27T01:00:12.000Z,77.33
2022-09-27T01:01:12.008Z,77.39
2022-09-27T01:02:12.042Z,77.49
2022-09-27T01:03:11.988Z,77.49
2022-09-27T01:04:12.009Z,77.49
2022-09-27T01:05:11.999Z,77.49
2022-09-27T01:06:11.995Z,77.45
2022-09-27T01:07:11.987Z,77.51
2022-09-27T01:08:12.227Z,77.52
2022-09-27T01:09:11.976Z,77.53
2022-09-27T01:10:11.994Z,77.53
2022-09-27T01:11:11.986Z,77.50
2022-09-27T01:12:11.996Z,77.53
2022-09-27T01:13:12.357Z,77.44
2022-09-27T01:14:11.983Z,77.49
2022-09-27T01:15:11.976Z,77.41
2022-09-27T01:16:12.011Z,77.41
2022-09-27T01:17:11.975Z,77.24
2022-09-27T01:18:12.497Z,77.16
2022-09-27T01:19:11.964Z,77.18
2022-09-27T01:20:11.974Z,77.29
2022-09-27T01:21:11.976Z,77.39
2022-09-27T01:22:11.963Z,77.48
2022-09-27T01:23:11.963Z,77.42
2022-09-27T01:24:11.972Z,77.41
2022-09-27T01:25:11.961Z,77.25
2022-09-27T01:26:11.964Z,77.12
2022-09-27T01:27:11.972Z,77.11
2022-09-27T01:28:11.962Z,77.12
2022-09-27T01:29:11.972Z,77.33
2022-09-27T01:30:11.954Z,77.44
2022-09-27T01:31:11.999Z,77.52
2022-09-27T01:32:11.942Z,77.66
2022-09-27T01:33:11.940Z,77.84
2022-09-27T01:34:11.951Z,77.70
2022-09-27T01:35:11.930Z,77.57
2022-09-27T01:36:11.930Z,77.50
2022-09-27T01:37:11.920Z,77.44
2022-09-27T01:38:11.929Z,77.32
2022-09-27T01:39:11.930Z,77.28
2022-09-27T01:40:11.920Z,77.25
2022-09-27T01:41:11.924Z,77.34
2022-09-27T01:42:13.164Z,77.36
2022-09-27T01:43:11.908Z,77.28
2022-09-27T01:44:11.908Z,77.23
2022-09-27T01:45:11.897Z,77.14
2022-09-27T01:46:11.957Z,77.08
2022-09-27T01:47:11.867Z,77.24
2022-09-27T01:48:11.857Z,77.27
2022-09-27T01:49:11.867Z,77.39
2022-09-27T01:50:11.849Z,77.44
2022-09-27T01:51:11.836Z,77.27
2022-09-27T01:52:11.816Z,77.24
2022-09-27T01:53:11.806Z,77.14
2022-09-27T01:54:11.834Z,77.24
2022-09-27T01:55:11.816Z,77.17
2022-09-27T01:56:11.812Z,77.03
2022-09-27T01:57:11.806Z,76.93
2022-09-27T01:58:11.823Z,76.79
2022-09-27T01:59:11.807Z,76.84
2022-09-27T02:00:11.805Z,76.94
2022-09-27T02:01:11.863Z,77.02
2022-09-27T02:02:11.806Z,77.06
2022-09-27T02:03:12.093Z,77.29
2022-09-27T02:04:11.788Z,77.40
2022-09-27T02:05:11.771Z,77.17
2022-09-27T02:06:12.953Z,77.02
2022-09-27T02:07:11.763Z,76.95
2022-09-27T02:08:12.222Z,76.90
2022-09-27T02:09:11.771Z,77.01
2022-09-27T02:10:11.751Z,77.13
2022-09-27T02:11:11.744Z,77.19
2022-09-27T02:12:11.750Z,77.21
2022-09-27T02:13:12.469Z,77.42
2022-09-27T02:14:11.770Z,77.53
2022-09-27T02:15:11.759Z,77.46
2022-09-27T02:16:11.839Z,77.49
2022-09-27T02:17:11.746Z,77.44
2022-09-27T02:18:11.750Z,77.45
2022-09-27T02:19:11.749Z,77.39
2022-09-27T02:20:11.753Z,77.49
2022-09-27T02:21:11.748Z,77.42
2022-09-27T02:22:11.729Z,77.30
2022-09-27T02:23:11.738Z,77.24
2022-09-27T02:24:11.738Z,77.33
2022-09-27T02:25:11.729Z,77.38
2022-09-27T02:26:11.736Z,77.43
2022-09-27T02:27:11.728Z,77.44
2022-09-27T02:28:11.734Z,77.42
2022-09-27T02:29:11.774Z,77.36
2022-09-27T02:30:11.726Z,77.36
2022-09-27T02:31:11.797Z,77.19
2022-09-27T02:32:11.716Z,77.11
2022-09-27T02:33:12.495Z,77.00
2022-09-27T02:34:11.718Z,76.90
2022-09-27T02:35:11.726Z,76.68
2022-09-27T02:36:11.726Z,76.75
2022-09-27T02:37:11.717Z,76.71
2022-09-27T02:38:11.717Z,76.83
2022-09-27T02:39:11.724Z,76.97
2022-09-27T02:40:11.724Z,77.22
2022-09-27T02:41:11.715Z,77.27
2022-09-27T02:42:11.714Z,77.15
2022-09-27T02:43:11.733Z,77.18
2022-09-27T02:44:11.723Z,77.22
2022-09-27T02:45:11.742Z,77.23
2022-09-27T02:46:11.778Z,77.37
2022-09-27T02:47:11.732Z,77.27
2022-09-27T02:48:11.732Z,77.07
2022-09-27T02:49:11.747Z,76.81
2022-09-27T02:50:11.763Z,76.78
2022-09-27T02:51:11.752Z,76.77
2022-09-27T02:52:11.763Z,76.93
2022-09-27T02:53:11.749Z,77.02
2022-09-27T02:54:11.761Z,77.11
2022-09-27T02:55:11.770Z,77.04
2022-09-27T02:56:11.752Z,77.09
2022-09-27T02:57:11.761Z,77.16
2022-09-27T02:58:11.761Z,77.33
2022-09-27T02:59:11.768Z,77.40
2022-09-27T03:00:11.778Z,77.45
2022-09-27T03:01:11.806Z,77.36
2022-09-27T03:02:13.754Z,77.40
2022-09-27T03:03:12.158Z,77.40
2022-09-27T03:04:11.789Z,77.37
2022-09-27T03:05:11.778Z,77.38
2022-09-27T03:06:11.769Z,77.25
2022-09-27T03:07:11.767Z,76.91
2022-09-27T03:08:12.346Z,76.74
2022-09-27T03:09:11.777Z,76.72
2022-09-27T03:10:11.796Z,76.81
2022-09-27T03:11:11.787Z,77.10
2022-09-27T03:12:11.776Z,77.21
2022-09-27T03:13:12.065Z,77.17
2022-09-27T03:14:11.776Z,77.23
2022-09-27T03:15:11.785Z,77.15
2022-09-27T03:16:11.782Z,77.01
2022-09-27T03:17:11.827Z,76.92
2022-09-27T03:18:12.627Z,76.79
2022-09-27T03:19:11.775Z,76.68
2022-09-27T03:20:11.775Z,76.89
2022-09-27T03:21:11.762Z,76.94
2022-09-27T03:22:11.772Z,76.90
2022-09-27T03:23:11.773Z,76.78
2022-09-27T03:24:11.768Z,76.69
2022-09-27T03:25:11.765Z,76.80
2022-09-27T03:26:13.122Z,76.90
2022-09-27T03:27:11.751Z,76.92
2022-09-27T03:28:11.742Z,77.08
2022-09-27T03:29:11.733Z,77.00
2022-09-27T03:30:11.743Z,76.89
2022-09-27T03:31:11.803Z,76.73
2022-09-27T03:32:11.742Z,76.72
2022-09-27T03:33:11.750Z,76.76
2022-09-27T03:34:11.751Z,76.75
2022-09-27T03:35:11.741Z,76.68
2022-09-27T03:36:11.727Z,76.65
2022-09-27T03:37:11.728Z,76.73
2022-09-27T03:38:11.720Z,76.87
2022-09-27T03:39:11.710Z,76.81
2022-09-27T03:40:11.727Z,76.94
2022-09-27T03:41:11.709Z,77.04
2022-09-27T03:42:11.709Z,76.93
2022-09-27T03:43:11.708Z,76.87
2022-09-27T03:44:11.710Z,76.82
2022-09-27T03:45:11.708Z,76.82
2022-09-27T03:46:11.737Z,76.80
2022-09-27T03:47:11.710Z,76.71
2022-09-27T03:48:12.608Z,76.65
2022-09-27T03:49:11.697Z,76.70
2022-09-27T03:50:11.697Z,76.71
2022-09-27T03:51:11.686Z,76.59
2022-09-27T03:52:11.686Z,76.59
2022-09-27T03:53:11.687Z,76.75
2022-09-27T03:54:11.674Z,76.48
2022-09-27T03:55:11.678Z,76.50
2022-09-27T03:56:12.585Z,76.50
2022-09-27T03:57:11.666Z,76.54
2022-09-27T03:58:11.965Z,76.75
2022-09-27T03:59:11.655Z,76.80
2022-09-27T04:00:11.664Z,76.75
2022-09-27T04:01:11.732Z,76.82
2022-09-27T04:02:11.691Z,76.63
2022-09-27T04:03:12.233Z,76.38
2022-09-27T04:04:11.641Z,76.13
2022-09-27T04:05:11.654Z,76.12
2022-09-27T04:06:11.634Z,76.15
2022-09-27T04:07:11.626Z,76.17
2022-09-27T04:08:12.342Z,76.34
2022-09-27T04:09:11.751Z,76.48
2022-09-27T04:10:11.624Z,76.58
2022-09-27T04:11:11.632Z,76.58
2022-09-27T04:12:11.602Z,76.44
2022-09-27T04:13:12.481Z,76.47
2022-09-27T04:14:11.589Z,76.52
2022-09-27T04:15:11.580Z,76.55
2022-09-27T04:16:11.582Z,76.55
2022-09-27T04:17:11.628Z,76.43
2022-09-27T04:18:12.617Z,76.33
2022-09-27T04:19:11.559Z,76.31
2022-09-27T04:20:11.569Z,76.07
2022-09-27T04:21:11.559Z,76.18
2022-09-27T04:22:11.549Z,76.33
2022-09-27T04:23:11.549Z,76.42
2022-09-27T04:24:11.548Z,76.44
2022-09-27T04:25:11.549Z,76.54
2022-09-27T04:26:11.567Z,76.51
2022-09-27T04:27:11.528Z,76.50
2022-09-27T04:28:11.519Z,76.63
2022-09-27T04:29:11.618Z,76.61
2022-09-27T04:30:11.506Z,76.63
2022-09-27T04:31:11.594Z,76.56
2022-09-27T04:32:12.449Z,76.38
2022-09-27T04:33:11.506Z,76.19
2022-09-27T04:34:11.516Z,76.15
2022-09-27T04:35:11.516Z,76.09
2022-09-27T04:36:11.525Z,76.22
2022-09-27T04:37:11.505Z,76.17
2022-09-27T04:38:11.514Z,76.04
2022-09-27T04:39:11.578Z,76.10
2022-09-27T04:40:11.492Z,75.89
2022-09-27T04:41:11.493Z,75.73
2022-09-27T04:42:11.484Z,75.56
2022-09-27T04:43:11.473Z,75.49
2022-09-27T04:44:11.473Z,75.54
2022-09-27T04:45:11.462Z,75.66
2022-09-27T04:46:11.507Z,75.72
2022-09-27T04:47:11.445Z,75.54
2022-09-27T04:48:11.443Z,75.56
2022-09-27T04:49:11.492Z,75.44
2022-09-27T04:50:11.433Z,75.38
2022-09-27T04:51:11.431Z,75.39
2022-09-27T04:52:11.428Z,75.67
2022-09-27T04:53:11.412Z,75.69
2022-09-27T04:54:11.409Z,75.66
2022-09-27T04:55:11.401Z,75.66
2022-09-27T04:56:11.398Z,75.70
2022-09-27T04:57:11.390Z,75.67
2022-09-27T04:58:11.393Z,75.63
2022-09-27T04:59:11.484Z,75.57
2022-09-27T05:00:11.399Z,75.51
2022-09-27T05:01:11.409Z,75.47
2022-09-27T05:02:11.396Z,75.43
2022-09-27T05:03:11.356Z,75.45
2022-09-27T05:04:11.357Z,75.53
2022-09-27T05:05:11.348Z,75.54
2022-09-27T05:06:11.357Z,75.62
2022-09-27T05:07:11.350Z,75.59
2022-09-27T05:08:11.356Z,75.63
2022-09-27T05:09:11.389Z,75.58
2022-09-27T05:10:11.342Z,75.73
2022-09-27T05:11:11.327Z,75.62
2022-09-27T05:12:11.346Z,75.56
2022-09-27T05:13:11.338Z,75.61
2022-09-27T05:14:11.327Z,75.45
2022-09-27T05:15:11.326Z,75.14
2022-09-27T05:16:11.415Z,75.07
2022-09-27T05:17:11.414Z,75.02
2022-09-27T05:18:11.326Z,75.05
2022-09-27T05:19:11.410Z,75.34
2022-09-27T05:20:11.317Z,75.37
2022-09-27T05:21:11.334Z,75.19
2022-09-27T05:22:11.345Z,75.09
2022-09-27T05:23:11.334Z,75.13
2022-09-27T05:24:11.343Z,75.28
2022-09-27T05:25:11.346Z,75.08
2022-09-27T05:26:11.353Z,74.99
2022-09-27T05:27:11.353Z,75.08
2022-09-27T05:28:11.363Z,75.07
2022-09-27T05:29:11.366Z,75.19
2022-09-27T05:30:11.362Z,75.27
2022-09-27T05:31:11.411Z,75.22
2022-09-27T05:32:11.397Z,75.15
2022-09-27T05:33:11.380Z,75.08
2022-09-27T05:34:11.402Z,75.13
2022-09-27T05:35:11.390Z,75.10
2022-09-27T05:36:11.392Z,75.00
2022-09-27T05:37:11.400Z,75.11
2022-09-27T05:38:11.411Z,75.04
2022-09-27T05:39:11.525Z,75.01
2022-09-27T05:40:29.289Z,75.09
2022-09-27T05:41:12.453Z,75.29
2022-09-27T05:42:11.461Z,75.34
2022-09-27T05:43:11.450Z,75.50
2022-09-27T05:44:11.481Z,75.49
2022-09-27T05:45:11.459Z,75.41
2022-09-27T05:46:11.500Z,75.34
2022-09-27T05:47:11.468Z,75.28
2022-09-27T05:48:11.706Z,75.39
2022-09-27T05:49:11.479Z,75.44
2022-09-27T05:50:11.505Z,75.42
2022-09-27T05:51:11.508Z,75.51
2022-09-27T05:52:15.094Z,75.59
2022-09-27T05:53:12.494Z,75.46
2022-09-27T05:54:11.516Z,75.18
2022-09-27T05:55:11.525Z,74.91
2022-09-27T05:56:11.527Z,74.98
2022-09-27T05:57:11.544Z,74.97
2022-09-27T05:58:11.546Z,74.97
2022-09-27T05:59:11.546Z,74.70
2022-09-27T06:00:11.545Z,74.67
2022-09-27T06:01:11.598Z,74.71
2022-09-27T06:02:11.646Z,74.79
2022-09-27T06:03:11.554Z,74.97
2022-09-27T06:04:11.636Z,75.06
2022-09-27T06:05:11.576Z,75.03
2022-09-27T06:06:11.572Z,75.05
2022-09-27T06:07:11.586Z,75.01
2022-09-27T06:08:11.593Z,74.98
2022-09-27T06:09:11.592Z,74.92
2022-09-27T06:10:11.593Z,74.93
2022-09-27T06:11:11.600Z,75.05
2022-09-27T06:12:11.612Z,75.09
2022-09-27T06:13:11.620Z,75.07
2022-09-27T06:14:11.635Z,74.98
2022-09-27T06:15:11.657Z,75.01
2022-09-27T06:16:11.713Z,74.96
2022-09-27T06:17:11.778Z,74.91
2022-09-27T06:18:11.660Z,74.93
2022-09-27T06:19:11.673Z,75.18
2022-09-27T06:20:11.668Z,75.46
2022-09-27T06:21:11.669Z,75.42
2022-09-27T06:22:11.788Z,75.35
2022-09-27T06:23:11.707Z,75.32
2022-09-27T06:24:11.697Z,75.23
2022-09-27T06:25:11.689Z,75.04
2022-09-27T06:26:11.697Z,74.86
2022-09-27T06:27:11.716Z,74.67
2022-09-27T06:28:11.697Z,74.70
2022-09-27T06:29:11.735Z,74.69
2022-09-27T06:30:11.689Z,74.80
2022-09-27T06:31:11.850Z,74.94
2022-09-27T06:32:11.699Z,75.03
2022-09-27T06:33:11.745Z,75.09
2022-09-27T06:34:11.719Z,74.87
2022-09-27T06:35:11.717Z,74.69
2022-09-27T06:36:11.755Z,74.67
2022-09-27T06:37:11.725Z,74.82
2022-09-27T06:38:11.738Z,74.61
2022-09-27T06:39:11.782Z,74.55
2022-09-27T06:40:11.723Z,74.36
2022-09-27T06:41:11.716Z,74.44
2022-09-27T06:42:11.734Z,74.47
2022-09-27T06:43:11.743Z,74.59
2022-09-27T06:44:11.745Z,74.49
2022-09-27T06:45:11.744Z,74.55
2022-09-27T06:46:11.832Z,74.60
2022-09-27T06:47:11.761Z,74.64
2022-09-27T06:48:11.773Z,74.69
2022-09-27T06:49:11.859Z,74.93
2022-09-27T06:50:11.762Z,74.94
2022-09-27T06:51:11.783Z,75.02
2022-09-27T06:52:11.784Z,74.87
2022-09-27T06:53:11.811Z,74.77
2022-09-27T06:54:11.798Z,74.84
2022-09-27T06:55:11.812Z,74.89
2022-09-27T06:56:11.810Z,74.86
2022-09-27T06:57:11.820Z,74.70
2022-09-27T06:58:11.859Z,74.69
2022-09-27T06:59:11.849Z,74.72
2022-09-27T07:00:11.863Z,74.67
2022-09-27T07:01:11.915Z,74.70
2022-09-27T07:02:11.938Z,74.79
2022-09-27T07:03:11.911Z,74.89
2022-09-27T07:04:11.908Z,75.02
2022-09-27T07:05:11.918Z,75.11
2022-09-27T07:06:11.935Z,75.02
2022-09-27T07:07:11.938Z,75.06
2022-09-27T07:08:12.168Z,75.13
2022-09-27T07:09:11.994Z,75.12
2022-09-27T07:10:11.976Z,75.10
2022-09-27T07:11:11.988Z,75.01
2022-09-27T07:12:11.996Z,75.00
2022-09-27T07:13:12.416Z,74.95
2022-09-27T07:14:12.025Z,74.91
2022-09-27T07:15:12.033Z,74.94
2022-09-27T07:16:12.254Z,75.06
2022-09-27T07:17:12.054Z,75.22
2022-09-27T07:18:12.056Z,74.95
2022-09-27T07:19:12.075Z,74.88
2022-09-27T07:20:12.892Z,75.00
2022-09-27T07:21:12.103Z,75.18
2022-09-27T07:22:12.113Z,75.21
2022-09-27T07:23:12.122Z,75.37
2022-09-27T07:24:12.142Z,75.57
2022-09-27T07:25:12.154Z,75.58
2022-09-27T07:26:12.163Z,75.65
2022-09-27T07:27:12.172Z,75.61
2022-09-27T07:28:12.192Z,75.82
2022-09-27T07:29:12.203Z,75.78
2022-09-27T07:30:12.222Z,75.97
2022-09-27T07:31:12.312Z,75.92
2022-09-27T07:32:12.230Z,75.97
2022-09-27T07:33:12.231Z,75.93
2022-09-27T07:34:12.260Z,75.85
2022-09-27T07:35:12.254Z,75.99
2022-09-27T07:36:12.273Z,75.73
2022-09-27T07:37:12.290Z,75.52
2022-09-27T07:38:12.310Z,75.30
2022-09-27T07:39:12.369Z,75.36
2022-09-27T07:40:12.339Z,75.44
2022-09-27T07:41:12.350Z,75.62
2022-09-27T07:42:12.360Z,75.61
2022-09-27T07:43:12.806Z,75.60
2022-09-27T07:44:12.408Z,75.33
2022-09-27T07:45:12.416Z,75.48
2022-09-27T07:46:12.449Z,75.57
2022-09-27T07:47:12.432Z,75.47
2022-09-27T07:48:12.437Z,75.01
2022-09-27T07:49:12.466Z,74.53
2022-09-27T07:50:12.466Z,74.15
2022-09-27T07:51:12.487Z,73.87
2022-09-27T07:52:12.486Z,73.84
2022-09-27T07:53:12.500Z,73.93
2022-09-27T07:54:12.509Z,74.30
2022-09-27T07:55:12.516Z,74.46
2022-09-27T07:56:12.525Z,74.58
2022-09-27T07:57:12.535Z,74.54
2022-09-27T07:58:12.704Z,74.50
2022-09-27T07:59:12.585Z,74.69
2022-09-27T08:00:12.597Z,74.64
2022-09-27T08:01:12.651Z,74.46
2022-09-27T08:02:12.659Z,74.26
2022-09-27T08:03:12.643Z,74.44
2022-09-27T08:04:12.673Z,74.71
2022-09-27T08:05:12.705Z,74.83
2022-09-27T08:06:12.694Z,74.86
2022-09-27T08:07:14.459Z,74.87
2022-09-27T08:08:12.744Z,74.87
2022-09-27T08:09:12.812Z,74.88
2022-09-27T08:10:12.782Z,75.15
2022-09-27T08:11:12.793Z,75.27
2022-09-27T08:12:12.811Z,75.26
2022-09-27T08:13:12.831Z,75.22
2022-09-27T08:14:12.841Z,75.20
2022-09-27T08:15:12.863Z,75.30
2022-09-27T08:16:12.918Z,75.54
2022-09-27T08:17:12.901Z,75.16
2022-09-27T08:18:12.963Z,74.75
2022-09-27T08:19:12.939Z,75.37
2022-09-27T08:20:12.970Z,75.17
2022-09-27T08:21:12.971Z,75.32
2022-09-27T08:22:12.988Z,75.79
2022-09-27T08:23:13.008Z,76.00
2022-09-27T08:24:13.008Z,76.12
2022-09-27T08:25:13.018Z,76.01
2022-09-27T08:26:13.039Z,76.04
2022-09-27T08:27:13.050Z,76.07
2022-09-27T08:28:13.079Z,76.19
2022-09-27T08:29:13.159Z,76.10
2022-09-27T08:30:13.084Z,76.30
2022-09-27T08:31:13.160Z,76.40
2022-09-27T08:32:13.121Z,76.10
2022-09-27T08:33:13.152Z,76.21
2022-09-27T08:34:13.139Z,76.26
2022-09-27T08:35:13.141Z,76.37
2022-09-27T08:36:13.156Z,76.56
2022-09-27T08:37:13.165Z,76.61
2022-09-27T08:38:13.223Z,76.64
2022-09-27T08:39:13.244Z,76.71
2022-09-27T08:40:13.248Z,76.70
2022-09-27T08:41:13.214Z,76.77
2022-09-27T08:42:13.226Z,76.73
2022-09-27T08:43:13.243Z,76.85
2022-09-27T08:44:13.607Z,76.92
2022-09-27T08:45:13.242Z,76.56
2022-09-27T08:46:13.293Z,76.43
2022-09-27T08:47:13.252Z,76.39
2022-09-27T08:48:13.273Z,76.60
2022-09-27T08:49:13.282Z,76.59
2022-09-27T08:50:13.281Z,76.60
2022-09-27T08:51:13.291Z,76.65
2022-09-27T08:52:13.301Z,76.64
2022-09-27T08:53:13.452Z,76.53
2022-09-27T08:54:13.311Z,76.62
2022-09-27T08:55:13.328Z,76.67
2022-09-27T08:56:13.322Z,76.92
2022-09-27T08:57:13.339Z,76.81
2022-09-27T08:58:13.381Z,76.74
2022-09-27T08:59:13.394Z,76.59
2022-09-27T09:00:13.410Z,76.64
2022-09-27T09:01:13.500Z,76.89
2022-09-27T09:02:13.493Z,76.64
2022-09-27T09:03:13.468Z,76.20
2022-09-27T09:04:13.450Z,76.23
2022-09-27T09:05:13.434Z,76.07
2022-09-27T09:06:13.450Z,75.98
2022-09-27T09:07:13.455Z,76.32
2022-09-27T09:08:13.446Z,76.12
2022-09-27T09:09:13.449Z,76.09
2022-09-27T09:10:13.457Z,76.05
2022-09-27T09:11:13.486Z,76.24
2022-09-27T09:12:13.482Z,76.21
2022-09-27T09:13:13.645Z,76.42
2022-09-27T09:14:13.818Z,76.50
2022-09-27T09:15:13.514Z,76.61
2022-09-27T09:16:13.584Z,76.37
2022-09-27T09:17:13.540Z,76.21
2022-09-27T09:18:13.785Z,76.12
2022-09-27T09:19:13.552Z,76.02
2022-09-27T09:20:17.204Z,75.99
2022-09-27T09:21:13.609Z,75.99
2022-09-27T09:22:13.603Z,76.19
2022-09-27T09:23:13.610Z,76.21
2022-09-27T09:24:14.769Z,76.14
2022-09-27T09:25:13.705Z,76.16
2022-09-27T09:26:13.968Z,76.31
2022-09-27T09:27:13.816Z,76.38
2022-09-27T09:28:13.666Z,76.34
2022-09-27T09:29:13.944Z,76.22
2022-09-27T09:30:13.826Z,76.22
2022-09-27T09:31:13.691Z,76.44
2022-09-27T09:32:13.702Z,76.39
2022-09-27T09:33:16.349Z,76.57
2022-09-27T09:34:13.765Z,76.66
2022-09-27T09:35:13.721Z,76.47
2022-09-27T09:36:13.726Z,76.33
2022-09-27T09:37:13.740Z,76.30
2022-09-27T09:38:13.731Z,76.53
2022-09-27T09:39:13.729Z,76.53
2022-09-27T09:40:13.802Z,76.43
2022-09-27T09:41:13.739Z,76.40
2022-09-27T09:42:13.787Z,76.56
2022-09-27T09:43:13.744Z,76.52
2022-09-27T09:44:13.773Z,76.58
2022-09-27T09:45:13.747Z,76.47
2022-09-27T09:46:13.803Z,76.33
2022-09-27T09:47:13.757Z,76.22
2022-09-27T09:48:13.777Z,76.03
2022-09-27T09:49:13.773Z,75.77
2022-09-27T09:50:13.767Z,75.58
2022-09-27T09:51:13.769Z,75.62
2022-09-27T09:52:13.797Z,75.46
2022-09-27T09:53:13.778Z,75.53
2022-09-27T09:54:13.819Z,75.54
2022-09-27T09:55:13.785Z,75.46
2022-09-27T09:56:13.798Z,75.54
2022-09-27T09:57:13.795Z,75.72
2022-09-27T09:58:17.798Z,75.87
2022-09-27T09:59:14.784Z,76.05
2022-09-27T10:00:13.795Z,76.03
2022-09-27T10:01:13.835Z,76.25
2022-09-27T10:02:13.836Z,76.30
2022-09-27T10:03:14.033Z,76.41
2022-09-27T10:04:13.875Z,76.44
2022-09-27T10:05:13.805Z,76.36
2022-09-27T10:06:13.803Z,76.24
2022-09-27T10:07:13.820Z,75.93
2022-09-27T10:08:13.933Z,76.03
2022-09-27T10:09:13.820Z,75.92
2022-09-27T10:10:13.820Z,76.16
2022-09-27T10:11:13.822Z,76.50
2022-09-27T10:12:13.839Z,76.57
2022-09-27T10:13:13.981Z,76.46
2022-09-27T10:14:13.883Z,76.42
2022-09-27T10:15:13.830Z,76.50
2022-09-27T10:16:13.909Z,76.55
2022-09-27T10:17:13.843Z,76.10
2022-09-27T10:18:14.001Z,75.62
2022-09-27T10:19:13.842Z,75.61
2022-09-27T10:20:13.849Z,75.73
2022-09-27T10:21:13.858Z,75.72
2022-09-27T10:22:13.871Z,75.57
2022-09-27T10:23:13.936Z,75.65
2022-09-27T10:24:18.061Z,75.78
2022-09-27T10:25:13.918Z,75.97
2022-09-27T10:26:13.866Z,76.13
2022-09-27T10:27:13.878Z,76.32
2022-09-27T10:28:14.002Z,76.34
2022-09-27T10:29:13.879Z,76.28
2022-09-27T10:30:13.879Z,76.39
2022-09-27T10:31:13.985Z,76.32
2022-09-27T10:32:13.896Z,75.73
2022-09-27T10:33:14.105Z,75.17
2022-09-27T10:34:13.954Z,75.01
2022-09-27T10:35:13.895Z,74.74
2022-09-27T10:36:13.907Z,74.64
2022-09-27T10:37:13.931Z,74.78
2022-09-27T10:38:14.133Z,74.97
2022-09-27T10:39:13.955Z,74.95
2022-09-27T10:40:14.015Z,74.74
2022-09-27T10:41:13.962Z,74.48
2022-09-27T10:42:13.933Z,74.36
2022-09-27T10:43:14.152Z,74.50
2022-09-27T10:44:13.942Z,74.67
2022-09-27T10:45:13.934Z,74.65
2022-09-27T10:46:13.944Z,74.72
2022-09-27T10:47:13.962Z,74.87
2022-09-27T10:48:14.394Z,75.06
2022-09-27T10:49:13.963Z,75.10
2022-09-27T10:50:32.468Z,75.14
2022-09-27T10:51:14.962Z,75.00
2022-09-27T10:52:13.963Z,74.77
2022-09-27T10:53:14.531Z,74.87
2022-09-27T10:54:13.991Z,75.01
2022-09-27T10:55:13.980Z,74.73
2022-09-27T10:56:13.990Z,74.68
2022-09-27T10:57:14.019Z,74.80
2022-09-27T10:58:14.661Z,75.02
2022-09-27T10:59:14.034Z,75.17
2022-09-27T11:00:14.030Z,75.40
2022-09-27T11:01:14.137Z,75.19
2022-09-27T11:02:14.780Z,74.57
2022-09-27T11:03:14.799Z,74.09
2022-09-27T11:04:14.214Z,73.99
2022-09-27T11:05:15.427Z,73.73
2022-09-27T11:06:14.090Z,73.48
2022-09-27T11:07:14.089Z,73.52
2022-09-27T11:08:14.948Z,73.69
2022-09-27T11:09:14.099Z,73.66
2022-09-27T11:10:14.100Z,73.56
2022-09-27T11:11:14.107Z,73.24
2022-09-27T11:12:14.124Z,73.32
2022-09-27T11:13:14.117Z,73.40
2022-09-27T11:14:14.162Z,73.56
2022-09-27T11:15:14.126Z,73.80
2022-09-27T11:16:14.150Z,73.99
2022-09-27T11:17:14.156Z,74.35
2022-09-27T11:18:14.144Z,74.09
2022-09-27T11:19:15.555Z,73.74
2022-09-27T11:20:14.153Z,73.63
2022-09-27T11:21:14.164Z,73.58
2022-09-27T11:22:14.174Z,73.67
2022-09-27T11:23:14.169Z,73.62
2022-09-27T11:24:14.203Z,73.88
2022-09-27T11:25:14.173Z,73.80
2022-09-27T11:26:14.185Z,73.69
2022-09-27T11:27:14.193Z,73.72
2022-09-27T11:28:14.213Z,73.88
2022-09-27T11:29:14.212Z,74.22
2022-09-27T11:30:14.302Z,73.93
2022-09-27T11:31:17.655Z,74.06
2022-09-27T11:32:15.260Z,74.05
2022-09-27T11:33:14.536Z,73.49
2022-09-27T11:34:14.457Z,73.25
2022-09-27T11:35:14.326Z,73.18
2022-09-27T11:36:14.340Z,73.32
2022-09-27T11:37:14.318Z,73.33
2022-09-27T11:38:24.795Z,73.50
2022-09-27T11:39:15.434Z,73.56
2022-09-27T11:40:14.319Z,73.35
2022-09-27T11:41:14.289Z,73.19
2022-09-27T11:42:14.310Z,73.20
2022-09-27T11:43:14.309Z,73.33
2022-09-27T11:44:14.336Z,73.52
2022-09-27T11:46:20.808Z,73.33
2022-09-27T11:47:15.408Z,73.08
2022-09-27T11:48:14.337Z,72.99
2022-09-27T11:49:14.415Z,72.60
2022-09-27T11:50:14.359Z,72.50
2022-09-27T11:51:14.378Z,72.56
2022-09-27T11:52:14.396Z,72.72
2022-09-27T11:53:14.405Z,73.12
2022-09-27T11:54:14.472Z,73.17
2022-09-27T11:55:14.407Z,73.22
2022-09-27T11:56:14.413Z,73.39
2022-09-27T11:57:14.424Z,73.68
2022-09-27T11:58:14.436Z,73.92
2022-09-27T11:59:14.474Z,73.87
2022-09-27T12:00:14.445Z,73.81
2022-09-27T12:01:14.453Z,73.95
2022-09-27T12:02:14.573Z,74.25
2022-09-27T12:03:14.933Z,74.20
2022-09-27T12:04:14.472Z,74.41
2022-09-27T12:05:14.478Z,74.54
2022-09-27T12:06:14.481Z,74.68
2022-09-27T12:07:14.492Z,74.69
2022-09-27T12:08:14.506Z,74.71
2022-09-27T12:09:14.557Z,74.49
2022-09-27T12:10:14.542Z,74.68
2022-09-27T12:11:14.536Z,74.89
2022-09-27T12:12:14.531Z,74.82
2022-09-27T12:13:14.565Z,74.88
2022-09-27T12:14:14.553Z,75.05
2022-09-27T12:15:15.795Z,75.32
2022-09-27T12:16:14.593Z,75.46
2022-09-27T12:17:14.581Z,75.56
2022-09-27T12:18:14.590Z,75.48
2022-09-27T12:19:14.658Z,75.42
2022-09-27T12:20:14.606Z,75.51
2022-09-27T12:21:14.643Z,75.57
2022-09-27T12:22:14.629Z,75.80
2022-09-27T12:23:14.629Z,75.82
2022-09-27T12:24:14.636Z,75.68
2022-09-27T12:25:19.684Z,75.27
2022-09-27T12:26:15.632Z,75.18
2022-09-27T12:27:14.647Z,75.18
2022-09-27T12:28:14.688Z,75.45
2022-09-27T12:29:14.717Z,75.72
2022-09-27T12:30:14.648Z,75.93
2022-09-27T12:31:30.655Z,76.12
2022-09-27T12:32:15.687Z,76.22
2022-09-27T12:33:14.639Z,76.31
2022-09-27T12:34:19.359Z,76.61
2022-09-27T12:35:15.636Z,76.62
2022-09-27T12:36:14.635Z,76.82
2022-09-27T12:37:14.642Z,76.64
2022-09-27T12:38:14.636Z,76.33
2022-09-27T12:39:14.704Z,76.37
2022-09-27T12:40:14.663Z,76.35
2022-09-27T12:41:14.618Z,76.40
2022-09-27T12:42:14.633Z,76.45
2022-09-27T12:43:14.625Z,76.35
2022-09-27T12:44:14.680Z,76.40
2022-09-27T12:45:14.631Z,76.37
2022-09-27T12:46:14.687Z,76.16
2022-09-27T12:47:14.643Z,76.04
2022-09-27T12:48:14.620Z,75.92
2022-09-27T12:49:14.718Z,75.76
2022-09-27T12:50:14.715Z,75.64
2022-09-27T12:51:14.628Z,75.65
2022-09-27T12:52:14.642Z,75.85
2022-09-27T12:53:14.640Z,76.15